Time;durP1;ratioP1;P1;durP2;ratioP2;P2;SDS_P1;SDS_P2;PMS_P1;PMS_P2;Temp;Humidity;BMP_temperature;BMP_pressure;BME280_temperature;BME280_humidity;BME280_pressure;Samples;Min_cycle;Max_cycle;Signal;HPM_P1;HPM_P2
2023/07/29 00:01:40;;;;;;;12.38;8.80;;;;;;;;;;4986146;28;20240;-60
2023/07/29 00:04:06;;;;;;;12.27;9.07;;;;;;;;;;4980281;28;20604;-59
2023/07/29 00:06:31;;;;;;;14.85;8.25;;;;;;;;;;4989231;28;20209;-59
2023/07/29 00:08:56;;;;;;;10.80;9.10;;;;;;;;;;4987188;28;20226;-59
2023/07/29 00:11:21;;;;;;;15.43;9.20;;;;;;;;;;4987296;28;20274;-59
2023/07/29 00:13:47;;;;;;;13.40;8.57;;;;;;;;;;4981231;28;20205;-59
2023/07/29 00:16:12;;;;;;;13.13;8.82;;;;;;;;;;4990965;28;20808;-59
2023/07/29 00:18:38;;;;;;;15.18;9.15;;;;;;;;;;4988525;28;20213;-60
2023/07/29 00:21:03;;;;;;;11.95;9.10;;;;;;;;;;4988433;28;20244;-59
2023/07/29 00:23:29;;;;;;;13.73;8.57;;;;;;;;;;4986689;28;20227;-59
2023/07/29 00:25:54;;;;;;;14.73;10.00;;;;;;;;;;4987801;28;20217;-59
2023/07/29 00:28:19;;;;;;;13.63;8.70;;;;;;;;;;4988381;28;20299;-59
2023/07/29 00:30:44;;;;;;;12.38;8.82;;;;;;;;;;4986875;28;20221;-59
2023/07/29 00:33:10;;;;;;;13.93;8.60;;;;;;;;;;4986827;28;20692;-59
2023/07/29 00:35:35;;;;;;;12.73;8.93;;;;;;;;;;4988714;28;20219;-59
2023/07/29 00:38:00;;;;;;;15.70;9.35;;;;;;;;;;4989343;28;20217;-59
2023/07/29 00:40:26;;;;;;;11.68;8.75;;;;;;;;;;4990620;28;20213;-59
2023/07/29 00:42:51;;;;;;;13.50;9.55;;;;;;;;;;4987302;28;20220;-59
2023/07/29 00:45:16;;;;;;;13.90;9.25;;;;;;;;;;4986660;28;20217;-59
2023/07/29 00:47:42;;;;;;;11.93;8.48;;;;;;;;;;4988425;28;20232;-59
2023/07/29 00:50:07;;;;;;;13.57;8.65;;;;;;;;;;4986822;28;20216;-59
2023/07/29 00:52:33;;;;;;;11.07;8.52;;;;;;;;;;4968890;28;20268;-59
2023/07/29 00:54:58;;;;;;;11.70;8.75;;;;;;;;;;4988750;28;20288;-59
2023/07/29 00:57:25;;;;;;;10.27;7.38;;;;;;;;;;4987402;28;20205;-59
2023/07/29 00:59:50;;;;;;;8.90;7.28;;;;;;;;;;4968128;28;20672;-59
2023/07/29 01:02:15;;;;;;;11.57;7.50;;;;;;;;;;4987995;28;20217;-59
2023/07/29 01:04:41;;;;;;;10.48;6.90;;;;;;;;;;4970229;28;20632;-59
2023/07/29 01:07:16;;;;;;;11.50;6.80;;;;;;;;;;4968496;28;20209;-59
2023/07/29 01:09:51;;;;;;;10.10;6.38;;;;;;;;;;4987257;28;20212;-59
2023/07/29 01:12:17;;;;;;;10.02;6.55;;;;;;;;;;4970180;28;20380;-59
2023/07/29 01:14:46;;;;;;;10.90;6.43;;;;;;;;;;4988312;28;20727;-59
2023/07/29 01:17:13;;;;;;;9.55;6.47;;;;;;;;;;4968173;28;20211;-59
2023/07/29 01:19:48;;;;;;;9.82;6.63;;;;;;;;;;4987920;28;20225;-59
2023/07/29 01:22:13;;;;;;;10.13;6.00;;;;;;;;;;4987438;28;20229;-59
2023/07/29 01:24:39;;;;;;;9.13;5.93;;;;;;;;;;4987225;28;20216;-59
2023/07/29 01:27:05;;;;;;;9.40;5.72;;;;;;;;;;4985403;28;20692;-59
2023/07/29 01:29:30;;;;;;;9.27;5.45;;;;;;;;;;4987535;28;20209;-59
2023/07/29 01:31:56;;;;;;;8.52;5.30;;;;;;;;;;4988285;28;20228;-59
2023/07/29 01:34:22;;;;;;;7.68;5.10;;;;;;;;;;4967010;28;20236;-59
2023/07/29 01:36:48;;;;;;;9.32;5.20;;;;;;;;;;4990754;28;20228;-59
2023/07/29 01:39:13;;;;;;;7.65;4.55;;;;;;;;;;4977185;28;20226;-59
2023/07/29 01:41:39;;;;;;;13.40;5.80;;;;;;;;;;4989551;28;20236;-59
2023/07/29 01:44:04;;;;;;;8.63;5.03;;;;;;;;;;4991710;28;20224;-59
2023/07/29 01:46:29;;;;;;;6.82;4.78;;;;;;;;;;4989725;28;20225;-59
2023/07/29 01:48:55;;;;;;;8.80;5.40;;;;;;;;;;4972576;28;20275;-59
2023/07/29 01:51:21;;;;;;;8.13;4.90;;;;;;;;;;4991248;28;20221;-59
2023/07/29 01:53:46;;;;;;;11.85;5.00;;;;;;;;;;4991082;28;20761;-59
2023/07/29 01:56:11;;;;;;;8.52;5.30;;;;;;;;;;4970902;28;20225;-59
2023/07/29 01:58:36;;;;;;;8.35;4.97;;;;;;;;;;4991107;28;20213;-59
2023/07/29 02:01:02;;;;;;;10.68;5.28;;;;;;;;;;4990348;28;20236;-59
2023/07/29 02:03:27;;;;;;;9.43;5.30;;;;;;;;;;4989474;28;20262;-59
2023/07/29 02:05:53;;;;;;;9.52;5.32;;;;;;;;;;4990733;28;20219;-59
2023/07/29 02:08:18;;;;;;;9.30;5.57;;;;;;;;;;4990311;28;20407;-59
2023/07/29 02:10:45;;;;;;;8.52;5.70;;;;;;;;;;4990313;28;20216;-59
2023/07/29 02:13:10;;;;;;;6.60;4.78;;;;;;;;;;4993270;28;20299;-59
2023/07/29 02:15:35;;;;;;;8.10;5.97;;;;;;;;;;4993366;28;20275;-59
2023/07/29 02:18:01;;;;;;;7.43;5.60;;;;;;;;;;4993140;28;20221;-59
2023/07/29 02:20:27;;;;;;;9.95;5.68;;;;;;;;;;4993772;28;20217;-59
2023/07/29 02:22:52;;;;;;;9.10;5.22;;;;;;;;;;4993190;28;20228;-59
2023/07/29 02:25:17;;;;;;;8.23;5.00;;;;;;;;;;4982614;28;20697;-58
2023/07/29 02:27:43;;;;;;;7.85;4.88;;;;;;;;;;4983563;28;20217;-58
2023/07/29 02:30:09;;;;;;;8.70;4.70;;;;;;;;;;4982685;28;20721;-59
2023/07/29 02:32:35;;;;;;;6.35;4.20;;;;;;;;;;4983592;28;20299;-58
2023/07/29 02:35:00;;;;;;;9.57;4.30;;;;;;;;;;4983803;28;20681;-58
2023/07/29 02:37:25;;;;;;;7.20;4.55;;;;;;;;;;4983007;28;20240;-58
2023/07/29 02:39:50;;;;;;;7.18;4.55;;;;;;;;;;4981566;28;20236;-58
2023/07/29 02:42:16;;;;;;;11.60;4.75;;;;;;;;;;4975801;28;20236;-58
2023/07/29 02:44:41;;;;;;;9.02;4.30;;;;;;;;;;4974783;28;20228;-58
2023/07/29 02:47:06;;;;;;;8.38;4.60;;;;;;;;;;4976924;28;20604;-59
2023/07/29 02:49:32;;;;;;;7.25;4.43;;;;;;;;;;4983108;28;20308;-58
2023/07/29 02:51:57;;;;;;;8.65;4.60;;;;;;;;;;4983012;28;20830;-58
2023/07/29 02:54:22;;;;;;;7.50;4.22;;;;;;;;;;4982739;28;20576;-59
2023/07/29 02:56:47;;;;;;;9.02;4.75;;;;;;;;;;4982904;28;20263;-58
2023/07/29 02:59:13;;;;;;;10.75;5.57;;;;;;;;;;4982294;28;20217;-59
2023/07/29 03:01:38;;;;;;;9.27;5.30;;;;;;;;;;4983621;28;20786;-58
2023/07/29 03:04:03;;;;;;;9.07;6.00;;;;;;;;;;4975642;28;20275;-58
2023/07/29 03:06:28;;;;;;;7.75;5.47;;;;;;;;;;4975287;28;20217;-58
2023/07/29 03:08:54;;;;;;;8.10;5.82;;;;;;;;;;4975690;28;20244;-58
2023/07/29 03:11:19;;;;;;;9.82;5.90;;;;;;;;;;4980988;28;22538;-58
2023/07/29 03:13:45;;;;;;;9.43;6.70;;;;;;;;;;4982902;28;20221;-58
2023/07/29 03:16:11;;;;;;;9.93;6.60;;;;;;;;;;4982348;28;20271;-58
2023/07/29 03:18:36;;;;;;;12.63;6.32;;;;;;;;;;4982618;28;20287;-58
2023/07/29 03:21:01;;;;;;;9.52;6.65;;;;;;;;;;4982124;28;20233;-59
2023/07/29 03:23:27;;;;;;;12.20;7.00;;;;;;;;;;4982917;28;20739;-58
2023/07/29 03:25:56;;;;;;;10.75;7.00;;;;;;;;;;4978206;28;20439;-58
2023/07/29 03:28:23;;;;;;;14.63;6.90;;;;;;;;;;4974433;28;20875;-58
2023/07/29 03:30:48;;;;;;;9.70;7.25;;;;;;;;;;4974962;28;20315;-58
2023/07/29 03:33:13;;;;;;;11.18;6.90;;;;;;;;;;4978153;28;20251;-58
2023/07/29 03:35:38;;;;;;;13.98;7.35;;;;;;;;;;4982652;28;20576;-59
2023/07/29 03:38:04;;;;;;;9.77;7.40;;;;;;;;;;4982316;28;20281;-59
2023/07/29 03:40:29;;;;;;;14.07;6.90;;;;;;;;;;4981781;28;20209;-58
2023/07/29 03:42:54;;;;;;;10.90;7.80;;;;;;;;;;4982726;28;20243;-59
2023/07/29 03:45:20;;;;;;;9.20;7.15;;;;;;;;;;4982238;28;20227;-59
2023/07/29 03:47:45;;;;;;;10.05;7.25;;;;;;;;;;4962396;28;20237;-59
2023/07/29 03:50:10;;;;;;;10.40;7.38;;;;;;;;;;4974349;28;20224;-59
2023/07/29 03:52:35;;;;;;;9.75;7.07;;;;;;;;;;4974901;28;20685;-59
2023/07/29 03:55:01;;;;;;;10.93;7.28;;;;;;;;;;4970949;28;20290;-59
2023/07/29 03:57:26;;;;;;;11.10;8.35;;;;;;;;;;4980495;28;20217;-59
2023/07/29 03:59:51;;;;;;;12.93;8.00;;;;;;;;;;4978753;28;20676;-59
2023/07/29 04:02:17;;;;;;;11.30;7.88;;;;;;;;;;4976391;28;20328;-58
2023/07/29 04:04:44;;;;;;;10.90;7.60;;;;;;;;;;4979476;28;20700;-59
2023/07/29 04:07:09;;;;;;;10.40;7.55;;;;;;;;;;4978354;28;20252;-59
2023/07/29 04:09:34;;;;;;;9.25;7.05;;;;;;;;;;4977709;28;20296;-59
2023/07/29 04:11:59;;;;;;;12.55;7.00;;;;;;;;;;4971572;28;20653;-59
2023/07/29 04:14:25;;;;;;;11.00;6.85;;;;;;;;;;4970970;28;20767;-59
2023/07/29 04:16:50;;;;;;;9.50;6.30;;;;;;;;;;4970516;28;20248;-59
2023/07/29 04:19:16;;;;;;;10.15;6.25;;;;;;;;;;4976428;28;20307;-59
2023/07/29 04:21:41;;;;;;;16.30;6.90;;;;;;;;;;4978506;28;20384;-59
2023/07/29 04:24:06;;;;;;;43.75;7.57;;;;;;;;;;4979176;28;20213;-59
2023/07/29 04:26:31;;;;;;;45.30;7.40;;;;;;;;;;4976655;28;20224;-58
2023/07/29 04:28:58;;;;;;;10.30;5.68;;;;;;;;;;4979212;28;20232;-58
2023/07/29 04:31:23;;;;;;;11.98;5.80;;;;;;;;;;4978450;28;20217;-59
2023/07/29 04:33:48;;;;;;;22.65;6.25;;;;;;;;;;4973698;28;20857;-59
2023/07/29 04:36:14;;;;;;;25.08;6.13;;;;;;;;;;4969169;28;20244;-59
2023/07/29 04:38:39;;;;;;;8.40;4.85;;;;;;;;;;4971180;28;20720;-59
2023/07/29 04:41:06;;;;;;;7.40;4.70;;;;;;;;;;4974533;28;20275;-59
2023/07/29 04:43:32;;;;;;;19.80;4.53;;;;;;;;;;4976483;28;20805;-59
2023/07/29 04:45:57;;;;;;;8.00;4.43;;;;;;;;;;4979320;28;20975;-58
2023/07/29 04:48:22;;;;;;;12.15;4.90;;;;;;;;;;4978161;28;20677;-59
2023/07/29 04:50:48;;;;;;;8.35;3.97;;;;;;;;;;4976522;28;20213;-59
2023/07/29 04:53:13;;;;;;;10.75;3.88;;;;;;;;;;4978431;28;20256;-58
2023/07/29 04:55:38;;;;;;;8.38;3.80;;;;;;;;;;4976870;28;21067;-59
2023/07/29 04:58:03;;;;;;;14.30;4.00;;;;;;;;;;4951566;28;20271;-59
2023/07/29 05:00:29;;;;;;;9.13;3.75;;;;;;;;;;4969886;28;20227;-59
2023/07/29 05:02:54;;;;;;;8.35;3.70;;;;;;;;;;4973147;28;20252;-58
2023/07/29 05:05:19;;;;;;;9.00;3.38;;;;;;;;;;4977697;28;20211;-59
2023/07/29 05:07:45;;;;;;;13.93;3.78;;;;;;;;;;4976883;28;20857;-59
2023/07/29 05:10:11;;;;;;;30.38;4.93;;;;;;;;;;4978245;28;20213;-59
2023/07/29 05:12:36;;;;;;;10.85;3.65;;;;;;;;;;4981349;28;20264;-59
2023/07/29 05:15:02;;;;;;;33.38;4.40;;;;;;;;;;4980138;28;20221;-59
2023/07/29 05:17:27;;;;;;;9.15;2.97;;;;;;;;;;4981904;28;20673;-59
2023/07/29 05:19:53;;;;;;;19.10;3.33;;;;;;;;;;4975751;28;20213;-59
2023/07/29 05:22:18;;;;;;;11.30;3.28;;;;;;;;;;4973138;28;20780;-59
2023/07/29 05:24:44;;;;;;;12.57;3.13;;;;;;;;;;4972906;28;20681;-59
2023/07/29 05:27:09;;;;;;;5.45;2.97;;;;;;;;;;4980628;28;20228;-59
2023/07/29 05:29:34;;;;;;;10.82;3.15;;;;;;;;;;4982860;28;20595;-59
2023/07/29 05:32:00;;;;;;;9.38;3.17;;;;;;;;;;4979662;28;20216;-59
2023/07/29 05:34:25;;;;;;;21.77;3.78;;;;;;;;;;4981256;28;20574;-59
2023/07/29 05:36:50;;;;;;;8.90;2.70;;;;;;;;;;4982241;28;20232;-59
2023/07/29 05:39:15;;;;;;;112.32;8.93;;;;;;;;;;4979720;28;20291;-58
2023/07/29 05:41:41;;;;;;;10.77;2.97;;;;;;;;;;4977371;28;20229;-57
2023/07/29 05:44:06;;;;;;;5.07;2.70;;;;;;;;;;4973128;28;20526;-58
2023/07/29 05:46:31;;;;;;;4.57;2.60;;;;;;;;;;4972513;28;20259;-57
2023/07/29 05:48:57;;;;;;;13.90;3.22;;;;;;;;;;4976527;28;20213;-58
2023/07/29 05:51:22;;;;;;;9.43;3.13;;;;;;;;;;4980920;28;20462;-57
2023/07/29 05:53:48;;;;;;;8.75;2.90;;;;;;;;;;4980882;28;20228;-58
2023/07/29 05:56:13;;;;;;;6.35;3.20;;;;;;;;;;4978776;28;20216;-58
2023/07/29 05:58:38;;;;;;;5.75;3.03;;;;;;;;;;4981687;28;20692;-58
2023/07/29 06:01:03;;;;;;;6.50;3.17;;;;;;;;;;4980375;28;20221;-59
2023/07/29 06:03:29;;;;;;;14.40;3.65;;;;;;;;;;4978204;28;20577;-58
2023/07/29 06:05:54;;;;;;;10.10;3.77;;;;;;;;;;4972511;28;20762;-58
2023/07/29 06:08:19;;;;;;;7.32;3.50;;;;;;;;;;4972167;28;20787;-58
2023/07/29 06:10:45;;;;;;;11.20;3.85;;;;;;;;;;4974993;28;20231;-58
2023/07/29 06:13:10;;;;;;;11.00;3.80;;;;;;;;;;4978917;28;20221;-59
2023/07/29 06:15:35;;;;;;;7.60;3.80;;;;;;;;;;4981132;28;20249;-58
2023/07/29 06:18:00;;;;;;;9.70;3.92;;;;;;;;;;4980814;28;20232;-59
2023/07/29 06:20:26;;;;;;;10.50;3.97;;;;;;;;;;4979399;28;20209;-58
2023/07/29 06:22:51;;;;;;;7.45;4.57;;;;;;;;;;4979373;28;20641;-58
2023/07/29 06:25:16;;;;;;;7.32;4.18;;;;;;;;;;4980987;28;20213;-58
2023/07/29 06:27:42;;;;;;;9.75;4.32;;;;;;;;;;4973241;28;20581;-59
2023/07/29 06:30:07;;;;;;;12.95;4.88;;;;;;;;;;4971127;28;20479;-59
2023/07/29 06:32:33;;;;;;;8.35;4.32;;;;;;;;;;4972770;28;20229;-58
2023/07/29 06:34:59;;;;;;;10.32;4.38;;;;;;;;;;4980584;28;20247;-59
2023/07/29 06:37:24;;;;;;;7.40;4.30;;;;;;;;;;4985118;28;20308;-59
2023/07/29 06:39:49;;;;;;;18.83;5.10;;;;;;;;;;4990428;28;20224;-59
2023/07/29 06:42:15;;;;;;;15.93;5.10;;;;;;;;;;4989607;28;20229;-59
2023/07/29 06:44:40;;;;;;;11.40;4.80;;;;;;;;;;4988075;28;20596;-58
2023/07/29 06:47:05;;;;;;;6.80;4.38;;;;;;;;;;4989325;28;20233;-58
2023/07/29 06:49:31;;;;;;;13.30;5.07;;;;;;;;;;4989813;28;20220;-58
2023/07/29 06:51:56;;;;;;;16.00;5.45;;;;;;;;;;4988857;28;20308;-58
2023/07/29 06:54:26;;;;;;;9.90;4.75;;;;;;;;;;4987982;28;20280;-58
2023/07/29 06:56:51;;;;;;;6.70;4.35;;;;;;;;;;4989418;28;20231;-58
2023/07/29 06:59:16;;;;;;;8.35;4.40;;;;;;;;;;4989533;28;20685;-58
2023/07/29 07:01:42;;;;;;;8.02;4.53;;;;;;;;;;4987750;28;20237;-58
2023/07/29 07:04:07;;;;;;;10.05;4.90;;;;;;;;;;4988672;28;20247;-58
2023/07/29 07:06:32;;;;;;;7.93;4.38;;;;;;;;;;4989993;28;20217;-58
2023/07/29 07:08:58;;;;;;;9.32;4.50;;;;;;;;;;4988092;28;20217;-58
2023/07/29 07:11:23;;;;;;;28.77;5.72;;;;;;;;;;4987738;28;20255;-58
2023/07/29 07:13:48;;;;;;;19.95;5.13;;;;;;;;;;4983119;28;20213;-58
2023/07/29 07:16:13;;;;;;;9.65;4.35;;;;;;;;;;4988634;28;20209;-58
2023/07/29 07:18:39;;;;;;;12.48;4.82;;;;;;;;;;4987322;28;20304;-58
2023/07/29 07:21:04;;;;;;;12.10;4.60;;;;;;;;;;4988974;28;20243;-58
2023/07/29 07:23:30;;;;;;;10.02;4.50;;;;;;;;;;4989466;28;20217;-58
2023/07/29 07:25:55;;;;;;;29.20;5.28;;;;;;;;;;4986743;28;20216;-58
2023/07/29 07:28:20;;;;;;;16.55;5.30;;;;;;;;;;4989046;28;20256;-58
2023/07/29 07:30:45;;;;;;;7.78;4.50;;;;;;;;;;4989456;28;20638;-58
2023/07/29 07:33:11;;;;;;;8.93;4.47;;;;;;;;;;4986851;28;20220;-58
2023/07/29 07:35:36;;;;;;;13.43;5.20;;;;;;;;;;4988368;28;20217;-58
2023/07/29 07:38:03;;;;;;;11.10;4.63;;;;;;;;;;4988791;28;20656;-59
2023/07/29 07:40:29;;;;;;;6.13;4.43;;;;;;;;;;4989130;28;20216;-58
2023/07/29 07:42:54;;;;;;;8.48;4.32;;;;;;;;;;4991149;28;20312;-58
2023/07/29 07:45:19;;;;;;;13.70;4.95;;;;;;;;;;4986032;28;20320;-58
2023/07/29 07:47:45;;;;;;;20.50;5.50;;;;;;;;;;4988150;28;20284;-58
2023/07/29 07:50:10;;;;;;;20.48;5.05;;;;;;;;;;4988282;28;20212;-58
2023/07/29 07:52:35;;;;;;;14.23;5.47;;;;;;;;;;4986827;28;20267;-58
2023/07/29 07:55:01;;;;;;;8.13;5.10;;;;;;;;;;4987107;28;20555;-60
2023/07/29 07:57:26;;;;;;;8.10;5.03;;;;;;;;;;4988305;28;20248;-58
2023/07/29 07:59:52;;;;;;;8.98;4.78;;;;;;;;;;4987556;28;20224;-58
2023/07/29 08:02:17;;;;;;;15.55;5.40;;;;;;;;;;4985940;28;20221;-58
2023/07/29 08:04:43;;;;;;;6.97;4.95;;;;;;;;;;4988900;28;20724;-58
2023/07/29 08:07:08;;;;;;;12.43;5.32;;;;;;;;;;4987423;28;20638;-58
2023/07/29 08:09:33;;;;;;;10.15;5.40;;;;;;;;;;4986445;28;20213;-59
2023/07/29 08:11:59;;;;;;;9.57;4.63;;;;;;;;;;4988587;28;20339;-58
2023/07/29 08:14:24;;;;;;;13.98;5.00;;;;;;;;;;4987080;28;20293;-59
2023/07/29 08:16:49;;;;;;;11.00;4.90;;;;;;;;;;4987591;28;20221;-58
2023/07/29 08:19:14;;;;;;;8.75;4.75;;;;;;;;;;4986818;28;20214;-59
2023/07/29 08:21:40;;;;;;;9.23;4.60;;;;;;;;;;4987610;28;20304;-58
2023/07/29 08:24:07;;;;;;;8.02;4.47;;;;;;;;;;4987470;28;20217;-59
2023/07/29 08:26:32;;;;;;;7.07;4.20;;;;;;;;;;4986212;28;20233;-59
2023/07/29 08:28:57;;;;;;;7.32;4.88;;;;;;;;;;4987490;28;20237;-59
2023/07/29 08:31:23;;;;;;;8.05;4.13;;;;;;;;;;4987978;28;20221;-58
2023/07/29 08:33:48;;;;;;;6.03;4.07;;;;;;;;;;4986752;28;20268;-59
2023/07/29 08:36:13;;;;;;;7.55;4.40;;;;;;;;;;4986696;28;20220;-59
2023/07/29 08:38:38;;;;;;;6.20;3.75;;;;;;;;;;4988361;28;20228;-59
2023/07/29 08:41:16;;;;;;;8.57;3.90;;;;;;;;;;4986700;28;20689;-59
2023/07/29 08:43:49;;;;;;;14.88;3.83;;;;;;;;;;4983667;28;20251;-59
2023/07/29 08:46:15;;;;;;;5.95;3.38;;;;;;;;;;4990799;28;20985;-59
2023/07/29 08:48:41;;;;;;;8.32;3.55;;;;;;;;;;4977244;28;20220;-59
2023/07/29 08:51:07;;;;;;;7.60;3.58;;;;;;;;;;4992173;28;20267;-59
2023/07/29 08:53:34;;;;;;;6.28;3.97;;;;;;;;;;4993875;28;20244;-59
2023/07/29 08:55:59;;;;;;;8.48;3.60;;;;;;;;;;4994072;28;20290;-59
2023/07/29 08:58:25;;;;;;;5.90;3.33;;;;;;;;;;4975933;28;20216;-59
2023/07/29 09:00:50;;;;;;;6.07;3.45;;;;;;;;;;4992672;28;20792;-59
2023/07/29 09:03:15;;;;;;;18.38;3.78;;;;;;;;;;4993301;28;20651;-59
2023/07/29 09:05:41;;;;;;;7.78;3.28;;;;;;;;;;4994602;28;20212;-59
2023/07/29 09:08:06;;;;;;;5.78;2.90;;;;;;;;;;4991792;28;20224;-59
2023/07/29 09:10:35;;;;;;;11.57;3.33;;;;;;;;;;4993896;28;20223;-59
2023/07/29 09:13:02;;;;;;;8.75;3.10;;;;;;;;;;4994500;28;21047;-59
2023/07/29 09:15:29;;;;;;;5.25;2.97;;;;;;;;;;4993256;28;20296;-59
2023/07/29 09:17:55;;;;;;;7.10;2.63;;;;;;;;;;4992672;28;20221;-59
2023/07/29 09:20:26;;;;;;;5.82;2.50;;;;;;;;;;4976693;28;20237;-59
2023/07/29 09:22:52;;;;;;;4.45;2.67;;;;;;;;;;4994769;28;20247;-59
2023/07/29 09:25:22;;;;;;;13.10;2.58;;;;;;;;;;4973157;28;20209;-59
2023/07/29 09:27:47;;;;;;;4.25;2.20;;;;;;;;;;4986342;28;20259;-59
2023/07/29 09:30:16;;;;;;;3.70;2.10;;;;;;;;;;4994025;28;20294;-59
2023/07/29 09:32:42;;;;;;;6.40;2.10;;;;;;;;;;4992856;28;20267;-59
2023/07/29 09:35:13;;;;;;;12.55;2.40;;;;;;;;;;4992796;28;20216;-59
2023/07/29 09:37:39;;;;;;;13.30;2.67;;;;;;;;;;4994133;28;20783;-59
2023/07/29 09:40:05;;;;;;;8.05;2.40;;;;;;;;;;4993824;28;20216;-59
2023/07/29 09:42:30;;;;;;;10.98;2.40;;;;;;;;;;4991520;28;20276;-59
2023/07/29 09:44:56;;;;;;;12.68;2.75;;;;;;;;;;4993995;28;20629;-59
2023/07/29 09:47:21;;;;;;;3.92;2.15;;;;;;;;;;4993015;28;20906;-59
2023/07/29 09:49:47;;;;;;;3.67;2.00;;;;;;;;;;4992799;28;20205;-59
2023/07/29 09:52:14;;;;;;;3.53;2.10;;;;;;;;;;4992469;28;20220;-59
2023/07/29 09:54:39;;;;;;;3.25;2.05;;;;;;;;;;4994187;28;20727;-59
2023/07/29 09:57:06;;;;;;;9.57;2.35;;;;;;;;;;4994923;28;20217;-59
2023/07/29 09:59:34;;;;;;;4.07;1.80;;;;;;;;;;4968346;28;20213;-59
2023/07/29 10:01:59;;;;;;;5.10;1.90;;;;;;;;;;4987098;28;20252;-59
2023/07/29 10:04:25;;;;;;;10.65;2.17;;;;;;;;;;4989597;28;20680;-59
2023/07/29 10:06:50;;;;;;;9.80;2.00;;;;;;;;;;4968666;28;20217;-58
2023/07/29 10:09:15;;;;;;;5.15;1.70;;;;;;;;;;4971015;28;20270;-59
2023/07/29 10:11:41;;;;;;;5.70;2.33;;;;;;;;;;4956302;28;20701;-59
2023/07/29 10:14:06;;;;;;;4.32;2.20;;;;;;;;;;4974961;28;20220;-59
2023/07/29 10:16:32;;;;;;;3.47;2.30;;;;;;;;;;4959434;28;20647;-58
2023/07/29 10:18:57;;;;;;;3.67;2.00;;;;;;;;;;4981545;28;20624;-59
2023/07/29 10:21:22;;;;;;;4.13;2.20;;;;;;;;;;4958301;28;20312;-59
2023/07/29 10:23:49;;;;;;;3.15;1.90;;;;;;;;;;4965351;28;20347;-59
2023/07/29 10:26:14;;;;;;;3.70;2.17;;;;;;;;;;4983879;28;20225;-59
2023/07/29 10:28:40;;;;;;;2.92;2.00;;;;;;;;;;4962473;28;20213;-59
2023/07/29 10:31:05;;;;;;;6.10;2.13;;;;;;;;;;4981937;28;20213;-59
2023/07/29 10:33:31;;;;;;;6.93;1.92;;;;;;;;;;4982934;28;20259;-59
2023/07/29 10:35:56;;;;;;;4.55;1.75;;;;;;;;;;4958329;28;20732;-59
2023/07/29 10:38:22;;;;;;;3.15;1.63;;;;;;;;;;4951051;28;20224;-58
2023/07/29 10:40:48;;;;;;;6.60;1.63;;;;;;;;;;4977367;28;20217;-59
2023/07/29 10:43:18;;;;;;;13.20;2.08;;;;;;;;;;4954584;28;20320;-59
2023/07/29 10:45:43;;;;;;;5.72;1.83;;;;;;;;;;4984062;28;20302;-60
2023/07/29 10:48:10;;;;;;;2.88;1.73;;;;;;;;;;4980896;28;20685;-59
2023/07/29 10:50:35;;;;;;;3.67;1.42;;;;;;;;;;4984552;28;20221;-59
2023/07/29 10:53:01;;;;;;;4.85;1.52;;;;;;;;;;4983577;28;20227;-59
2023/07/29 10:55:27;;;;;;;10.00;2.08;;;;;;;;;;4981561;28;20867;-59
2023/07/29 10:57:52;;;;;;;33.05;3.65;;;;;;;;;;4975529;28;20658;-59
2023/07/29 11:00:19;;;;;;;13.63;2.30;;;;;;;;;;4975897;28;20241;-59
2023/07/29 11:02:46;;;;;;;6.38;2.70;;;;;;;;;;4975593;28;20233;-59
2023/07/29 11:05:17;;;;;;;5.90;2.50;;;;;;;;;;4962307;28;20700;-60
2023/07/29 11:07:46;;;;;;;5.07;2.80;;;;;;;;;;4984006;28;21199;-59
2023/07/29 11:10:12;;;;;;;4.93;2.33;;;;;;;;;;4982847;28;20364;-59
2023/07/29 11:12:47;;;;;;;3.90;2.13;;;;;;;;;;4986336;28;20213;-59
2023/07/29 11:15:14;;;;;;;3.83;2.22;;;;;;;;;;4981950;28;20225;-59
2023/07/29 11:17:48;;;;;;;10.90;2.72;;;;;;;;;;4982872;28;20213;-59
2023/07/29 11:20:13;;;;;;;7.95;2.40;;;;;;;;;;4976070;28;20256;-59
2023/07/29 11:22:39;;;;;;;4.40;1.98;;;;;;;;;;4975528;28;20914;-59
2023/07/29 11:25:05;;;;;;;5.97;2.30;;;;;;;;;;4974181;28;20223;-59
2023/07/29 11:27:30;;;;;;;4.72;2.10;;;;;;;;;;4981245;28;20245;-59
2023/07/29 11:30:00;;;;;;;5.00;2.45;;;;;;;;;;4983518;28;20373;-59
2023/07/29 11:32:25;;;;;;;11.07;2.47;;;;;;;;;;4978316;28;20213;-58
2023/07/29 11:34:51;;;;;;;4.22;2.17;;;;;;;;;;4966662;28;20584;-59
2023/07/29 11:37:16;;;;;;;5.63;2.25;;;;;;;;;;4982782;28;20216;-59
2023/07/29 11:39:41;;;;;;;5.25;2.03;;;;;;;;;;4982661;28;20213;-59
2023/07/29 11:42:07;;;;;;;3.75;1.95;;;;;;;;;;4976991;28;20220;-59
2023/07/29 11:44:32;;;;;;;3.97;2.10;;;;;;;;;;4946793;28;20524;-59
2023/07/29 11:46:58;;;;;;;2.47;1.67;;;;;;;;;;4976064;28;20229;-59
2023/07/29 11:49:23;;;;;;;5.47;2.15;;;;;;;;;;4977463;28;20263;-59
2023/07/29 11:51:48;;;;;;;16.45;2.65;;;;;;;;;;4979653;28;20299;-59
2023/07/29 11:54:14;;;;;;;4.65;1.85;;;;;;;;;;4983098;28;20229;-59
2023/07/29 11:56:39;;;;;;;7.15;2.20;;;;;;;;;;4981858;28;20643;-58
2023/07/29 11:59:04;;;;;;;8.13;1.83;;;;;;;;;;4963957;28;20209;-59
2023/07/29 12:01:30;;;;;;;38.15;4.18;;;;;;;;;;4983375;28;20229;-59
2023/07/29 12:03:55;;;;;;;7.28;1.90;;;;;;;;;;4940255;28;20275;-59
2023/07/29 12:06:20;;;;;;;7.43;1.98;;;;;;;;;;4973027;28;20366;-58
2023/07/29 12:08:46;;;;;;;3.72;1.70;;;;;;;;;;4958052;28;20603;-58
2023/07/29 12:11:11;;;;;;;5.13;1.90;;;;;;;;;;4958746;28;20300;-59
2023/07/29 12:13:36;;;;;;;9.57;2.22;;;;;;;;;;4962531;28;20224;-59
2023/07/29 12:16:02;;;;;;;5.25;1.70;;;;;;;;;;4982669;28;20217;-59
2023/07/29 12:18:32;;;;;;;6.70;1.83;;;;;;;;;;4982989;28;20216;-59
2023/07/29 12:20:57;;;;;;;6.68;2.08;;;;;;;;;;4979810;28;20208;-59
2023/07/29 12:23:25;;;;;;;5.43;1.40;;;;;;;;;;4982109;28;20577;-59
2023/07/29 12:25:51;;;;;;;3.88;1.23;;;;;;;;;;4982350;28;20209;-59
2023/07/29 12:28:17;;;;;;;1.83;1.00;;;;;;;;;;4974796;28;20205;-59
2023/07/29 12:30:42;;;;;;;3.67;1.40;;;;;;;;;;4973316;28;20239;-59
2023/07/29 12:33:08;;;;;;;5.47;1.33;;;;;;;;;;4975792;28;20256;-59
2023/07/29 12:35:35;;;;;;;16.75;1.98;;;;;;;;;;4981026;28;20300;-59
2023/07/29 12:38:00;;;;;;;3.30;1.30;;;;;;;;;;4981424;28;21326;-59
2023/07/29 12:40:25;;;;;;;7.65;1.83;;;;;;;;;;4981868;28;20332;-59
2023/07/29 12:42:51;;;;;;;7.20;1.40;;;;;;;;;;4981566;28;20220;-59
2023/07/29 12:45:17;;;;;;;2.78;1.23;;;;;;;;;;4981082;28;20300;-59
2023/07/29 12:47:43;;;;;;;10.38;1.67;;;;;;;;;;4980207;28;20287;-59
2023/07/29 12:50:08;;;;;;;12.90;2.03;;;;;;;;;;4977847;28;20216;-59
2023/07/29 12:52:34;;;;;;;31.48;2.50;;;;;;;;;;4957622;28;20464;-59
2023/07/29 12:54:59;;;;;;;18.58;1.60;;;;;;;;;;4972950;28;20201;-59
2023/07/29 12:57:24;;;;;;;3.47;1.13;;;;;;;;;;4978436;28;20320;-59
2023/07/29 12:59:49;;;;;;;2.85;1.35;;;;;;;;;;4982875;28;20221;-59
2023/07/29 13:02:15;;;;;;;4.85;1.27;;;;;;;;;;4979682;28;20233;-59
2023/07/29 13:04:40;;;;;;;16.52;2.00;;;;;;;;;;4982394;28;20224;-59
2023/07/29 13:07:06;;;;;;;27.00;3.03;;;;;;;;;;4982047;28;20688;-59
2023/07/29 13:09:31;;;;;;;9.10;1.73;;;;;;;;;;4981250;28;20271;-59
2023/07/29 13:11:57;;;;;;;10.77;1.30;;;;;;;;;;4961649;28;20217;-59
2023/07/29 13:14:22;;;;;;;7.97;1.60;;;;;;;;;;4973813;28;20224;-60
2023/07/29 13:16:47;;;;;;;2.03;1.15;;;;;;;;;;4974670;28;20229;-59
2023/07/29 13:19:13;;;;;;;3.05;1.23;;;;;;;;;;4974482;28;20301;-58
2023/07/29 13:21:38;;;;;;;3.17;1.40;;;;;;;;;;4982945;28;20231;-58
2023/07/29 13:24:03;;;;;;;25.65;2.53;;;;;;;;;;4981656;28;20629;-58
2023/07/29 13:26:29;;;;;;;4.35;1.90;;;;;;;;;;4980425;28;20268;-58
2023/07/29 13:28:55;;;;;;;15.05;2.03;;;;;;;;;;4981885;28;20213;-58
2023/07/29 13:31:20;;;;;;;6.13;1.80;;;;;;;;;;4980876;28;20247;-58
2023/07/29 13:33:46;;;;;;;7.82;1.80;;;;;;;;;;4985481;28;20393;-58
2023/07/29 13:36:11;;;;;;;8.25;2.00;;;;;;;;;;4977012;28;20209;-58
2023/07/29 13:38:36;;;;;;;26.13;3.25;;;;;;;;;;4977781;28;20288;-58
2023/07/29 13:41:02;;;;;;;10.15;2.20;;;;;;;;;;4978885;28;20229;-58
2023/07/29 13:43:27;;;;;;;5.55;2.00;;;;;;;;;;4981969;28;20308;-58
2023/07/29 13:45:52;;;;;;;9.27;1.95;;;;;;;;;;4984596;28;20546;-59
2023/07/29 13:48:18;;;;;;;2.78;1.80;;;;;;;;;;4985403;28;20225;-58
2023/07/29 13:50:43;;;;;;;8.23;2.20;;;;;;;;;;4985033;28;20306;-58
2023/07/29 13:53:09;;;;;;;3.47;2.00;;;;;;;;;;4983637;28;20220;-58
2023/07/29 13:55:34;;;;;;;3.95;2.10;;;;;;;;;;4985150;28;20669;-58
2023/07/29 13:57:59;;;;;;;4.63;1.88;;;;;;;;;;4980161;28;20888;-58
2023/07/29 14:00:25;;;;;;;7.35;2.25;;;;;;;;;;4975832;28;20275;-58
2023/07/29 14:02:50;;;;;;;7.75;2.22;;;;;;;;;;4978252;28;20607;-58
2023/07/29 14:05:15;;;;;;;5.72;2.13;;;;;;;;;;4981209;28;20271;-58
2023/07/29 14:07:41;;;;;;;3.60;1.83;;;;;;;;;;4983704;28;20213;-58
2023/07/29 14:10:06;;;;;;;4.10;1.83;;;;;;;;;;4984369;28;20222;-58
2023/07/29 14:12:31;;;;;;;7.00;1.80;;;;;;;;;;4984488;28;20216;-58
2023/07/29 14:14:57;;;;;;;2.30;1.42;;;;;;;;;;4984378;28;20704;-58
2023/07/29 14:17:22;;;;;;;4.47;1.58;;;;;;;;;;4983767;28;20236;-58
2023/07/29 14:19:47;;;;;;;2.30;1.27;;;;;;;;;;4982910;28;20224;-59
2023/07/29 14:22:13;;;;;;;5.43;1.60;;;;;;;;;;4976653;28;20237;-58
2023/07/29 14:24:38;;;;;;;2.42;1.58;;;;;;;;;;4975082;28;20713;-58
2023/07/29 14:27:04;;;;;;;3.58;1.80;;;;;;;;;;4978476;28;20217;-58
2023/07/29 14:29:29;;;;;;;4.13;1.67;;;;;;;;;;4985616;28;20319;-58